sensor_id;sensor_type;location;lat;lon;timestamp;pressure;altitude;pressure_sealevel;temperature
12875;BMP180;6505;51.114;13.128;2023-07-13T00:01:20;99263.00;;;29.60
12875;BMP180;6505;51.114;13.128;2023-07-13T00:03:48;99253.00;;;29.60
12875;BMP180;6505;51.114;13.128;2023-07-13T00:06:17;99267.00;;;29.50
12875;BMP180;6505;51.114;13.128;2023-07-13T00:08:47;99276.00;;;29.50
12875;BMP180;6505;51.114;13.128;2023-07-13T00:11:18;99270.00;;;29.50
12875;BMP180;6505;51.114;13.128;2023-07-13T00:13:47;99289.00;;;29.50
12875;BMP180;6505;51.114;13.128;2023-07-13T00:16:18;99289.00;;;29.40
12875;BMP180;6505;51.114;13.128;2023-07-13T00:18:47;99296.00;;;29.40
12875;BMP180;6505;51.114;13.128;2023-07-13T00:21:17;99290.00;;;29.40
12875;BMP180;6505;51.114;13.128;2023-07-13T00:23:46;99291.00;;;29.40
12875;BMP180;6505;51.114;13.128;2023-07-13T00:26:16;99290.00;;;29.40
12875;BMP180;6505;51.114;13.128;2023-07-13T00:28:46;99292.00;;;29.40
12875;BMP180;6505;51.114;13.128;2023-07-13T00:31:17;99305.00;;;29.30
12875;BMP180;6505;51.114;13.128;2023-07-13T00:33:47;99307.00;;;29.30
12875;BMP180;6505;51.114;13.128;2023-07-13T00:36:17;99310.00;;;29.30
12875;BMP180;6505;51.114;13.128;2023-07-13T00:38:48;99324.00;;;29.30
12875;BMP180;6505;51.114;13.128;2023-07-13T00:41:18;99329.00;;;29.30
12875;BMP180;6505;51.114;13.128;2023-07-13T00:43:47;99330.00;;;29.20
12875;BMP180;6505;51.114;13.128;2023-07-13T00:46:27;99320.00;;;29.20
12875;BMP180;6505;51.114;13.128;2023-07-13T00:49:01;99323.00;;;29.20
12875;BMP180;6505;51.114;13.128;2023-07-13T00:51:39;99326.00;;;29.10
12875;BMP180;6505;51.114;13.128;2023-07-13T00:54:14;99326.00;;;29.10
12875;BMP180;6505;51.114;13.128;2023-07-13T00:56:51;99330.00;;;29.10
12875;BMP180;6505;51.114;13.128;2023-07-13T00:59:22;99324.00;;;29.10
12875;BMP180;6505;51.114;13.128;2023-07-13T01:01:54;99326.00;;;29.10
12875;BMP180;6505;51.114;13.128;2023-07-13T01:04:25;99334.00;;;29.10
12875;BMP180;6505;51.114;13.128;2023-07-13T01:06:56;99321.00;;;29.00
12875;BMP180;6505;51.114;13.128;2023-07-13T01:09:28;99308.00;;;29.00
12875;BMP180;6505;51.114;13.128;2023-07-13T01:11:58;99298.00;;;29.00
12875;BMP180;6505;51.114;13.128;2023-07-13T01:14:28;99289.00;;;29.00
12875;BMP180;6505;51.114;13.128;2023-07-13T01:16:59;99290.00;;;29.00
12875;BMP180;6505;51.114;13.128;2023-07-13T01:19:36;99299.00;;;28.90
12875;BMP180;6505;51.114;13.128;2023-07-13T01:22:12;99289.00;;;28.90
12875;BMP180;6505;51.114;13.128;2023-07-13T01:24:47;99300.00;;;28.80
12875;BMP180;6505;51.114;13.128;2023-07-13T01:27:21;99308.00;;;28.80
12875;BMP180;6505;51.114;13.128;2023-07-13T01:29:53;99304.00;;;28.80
12875;BMP180;6505;51.114;13.128;2023-07-13T01:32:30;99304.00;;;28.80
12875;BMP180;6505;51.114;13.128;2023-07-13T01:35:01;99292.00;;;28.80
12875;BMP180;6505;51.114;13.128;2023-07-13T01:37:34;99294.00;;;28.80
12875;BMP180;6505;51.114;13.128;2023-07-13T01:40:06;99298.00;;;28.80
12875;BMP180;6505;51.114;13.128;2023-07-13T01:42:38;99297.00;;;28.70
12875;BMP180;6505;51.114;13.128;2023-07-13T01:45:10;99307.00;;;28.70
12875;BMP180;6505;51.114;13.128;2023-07-13T01:47:40;99311.00;;;28.70
12875;BMP180;6505;51.114;13.128;2023-07-13T01:50:10;99307.00;;;28.70
12875;BMP180;6505;51.114;13.128;2023-07-13T01:52:43;99296.00;;;28.70
12875;BMP180;6505;51.114;13.128;2023-07-13T01:55:14;99305.00;;;28.70
12875;BMP180;6505;51.114;13.128;2023-07-13T01:57:44;99299.00;;;28.60
12875;BMP180;6505;51.114;13.128;2023-07-13T02:00:16;99313.00;;;28.60
12875;BMP180;6505;51.114;13.128;2023-07-13T02:02:48;99317.00;;;28.60
12875;BMP180;6505;51.114;13.128;2023-07-13T02:05:19;99325.00;;;28.50
12875;BMP180;6505;51.114;13.128;2023-07-13T02:07:51;99324.00;;;28.50
12875;BMP180;6505;51.114;13.128;2023-07-13T02:10:21;99324.00;;;28.50
12875;BMP180;6505;51.114;13.128;2023-07-13T02:12:54;99327.00;;;28.50
12875;BMP180;6505;51.114;13.128;2023-07-13T02:15:31;99326.00;;;28.50
12875;BMP180;6505;51.114;13.128;2023-07-13T02:18:03;99320.00;;;28.50
12875;BMP180;6505;51.114;13.128;2023-07-13T02:20:36;99314.00;;;28.40
12875;BMP180;6505;51.114;13.128;2023-07-13T02:23:10;99317.00;;;28.40
12875;BMP180;6505;51.114;13.128;2023-07-13T02:25:45;99306.00;;;28.40
12875;BMP180;6505;51.114;13.128;2023-07-13T02:28:16;99305.00;;;28.40
12875;BMP180;6505;51.114;13.128;2023-07-13T02:30:47;99296.00;;;28.40
12875;BMP180;6505;51.114;13.128;2023-07-13T02:33:19;99306.00;;;28.30
12875;BMP180;6505;51.114;13.128;2023-07-13T02:35:51;99307.00;;;28.30
12875;BMP180;6505;51.114;13.128;2023-07-13T02:38:22;99322.00;;;28.30
12875;BMP180;6505;51.114;13.128;2023-07-13T02:40:52;99324.00;;;28.30
12875;BMP180;6505;51.114;13.128;2023-07-13T02:43:22;99329.00;;;28.30
12875;BMP180;6505;51.114;13.128;2023-07-13T02:45:51;99334.00;;;28.30
12875;BMP180;6505;51.114;13.128;2023-07-13T02:48:21;99329.00;;;28.20
12875;BMP180;6505;51.114;13.128;2023-07-13T02:50:51;99321.00;;;28.20
12875;BMP180;6505;51.114;13.128;2023-07-13T02:53:21;99317.00;;;28.20
12875;BMP180;6505;51.114;13.128;2023-07-13T02:55:52;99319.00;;;28.10
12875;BMP180;6505;51.114;13.128;2023-07-13T02:58:21;99318.00;;;28.10
12875;BMP180;6505;51.114;13.128;2023-07-13T03:00:50;99318.00;;;28.10
12875;BMP180;6505;51.114;13.128;2023-07-13T03:03:19;99311.00;;;28.10
12875;BMP180;6505;51.114;13.128;2023-07-13T03:05:59;99324.00;;;28.00
12875;BMP180;6505;51.114;13.128;2023-07-13T03:08:37;99322.00;;;28.00
12875;BMP180;6505;51.114;13.128;2023-07-13T03:11:10;99326.00;;;28.00
12875;BMP180;6505;51.114;13.128;2023-07-13T03:13:42;99330.00;;;28.00
12875;BMP180;6505;51.114;13.128;2023-07-13T03:16:13;99333.00;;;28.00
12875;BMP180;6505;51.114;13.128;2023-07-13T03:18:48;99338.00;;;27.90
12875;BMP180;6505;51.114;13.128;2023-07-13T03:21:18;99339.00;;;27.90
12875;BMP180;6505;51.114;13.128;2023-07-13T03:23:49;99341.00;;;27.90
12875;BMP180;6505;51.114;13.128;2023-07-13T03:26:21;99343.00;;;27.90
12875;BMP180;6505;51.114;13.128;2023-07-13T03:28:51;99345.00;;;27.80
12875;BMP180;6505;51.114;13.128;2023-07-13T03:31:26;99343.00;;;27.80
12875;BMP180;6505;51.114;13.128;2023-07-13T03:33:58;99350.00;;;27.80
12875;BMP180;6505;51.114;13.128;2023-07-13T03:36:32;99365.00;;;27.80
12875;BMP180;6505;51.114;13.128;2023-07-13T03:39:08;99360.00;;;27.70
12875;BMP180;6505;51.114;13.128;2023-07-13T03:41:48;99361.00;;;27.70
12875;BMP180;6505;51.114;13.128;2023-07-13T03:44:18;99367.00;;;27.70
12875;BMP180;6505;51.114;13.128;2023-07-13T03:46:54;99371.00;;;27.70
12875;BMP180;6505;51.114;13.128;2023-07-13T03:49:24;99365.00;;;27.70
12875;BMP180;6505;51.114;13.128;2023-07-13T03:51:54;99366.00;;;27.70
12875;BMP180;6505;51.114;13.128;2023-07-13T03:54:26;99366.00;;;27.60
12875;BMP180;6505;51.114;13.128;2023-07-13T03:56:56;99371.00;;;27.60
12875;BMP180;6505;51.114;13.128;2023-07-13T03:59:26;99364.00;;;27.60
12875;BMP180;6505;51.114;13.128;2023-07-13T04:01:55;99371.00;;;27.60
12875;BMP180;6505;51.114;13.128;2023-07-13T04:04:25;99368.00;;;27.60
12875;BMP180;6505;51.114;13.128;2023-07-13T04:06:54;99372.00;;;27.50
12875;BMP180;6505;51.114;13.128;2023-07-13T04:09:26;99358.00;;;27.50
12875;BMP180;6505;51.114;13.128;2023-07-13T04:11:56;99368.00;;;27.50
12875;BMP180;6505;51.114;13.128;2023-07-13T04:14:27;99370.00;;;27.50
12875;BMP180;6505;51.114;13.128;2023-07-13T04:16:58;99368.00;;;27.50
12875;BMP180;6505;51.114;13.128;2023-07-13T04:19:27;99365.00;;;27.50
12875;BMP180;6505;51.114;13.128;2023-07-13T04:21:57;99368.00;;;27.50
12875;BMP180;6505;51.114;13.128;2023-07-13T04:24:28;99365.00;;;27.40
12875;BMP180;6505;51.114;13.128;2023-07-13T04:26:59;99374.00;;;27.50
12875;BMP180;6505;51.114;13.128;2023-07-13T04:29:29;99360.00;;;27.40
12875;BMP180;6505;51.114;13.128;2023-07-13T04:32:00;99370.00;;;27.40
12875;BMP180;6505;51.114;13.128;2023-07-13T04:34:31;99363.00;;;27.40
12875;BMP180;6505;51.114;13.128;2023-07-13T04:37:03;99368.00;;;27.40
12875;BMP180;6505;51.114;13.128;2023-07-13T04:39:36;99373.00;;;27.40
12875;BMP180;6505;51.114;13.128;2023-07-13T04:42:07;99374.00;;;27.40
12875;BMP180;6505;51.114;13.128;2023-07-13T04:44:38;99375.00;;;27.40
12875;BMP180;6505;51.114;13.128;2023-07-13T04:47:08;99386.00;;;27.40
12875;BMP180;6505;51.114;13.128;2023-07-13T04:49:39;99379.00;;;27.40
12875;BMP180;6505;51.114;13.128;2023-07-13T04:52:13;99372.00;;;27.40
12875;BMP180;6505;51.114;13.128;2023-07-13T04:54:51;99385.00;;;27.30
12875;BMP180;6505;51.114;13.128;2023-07-13T04:57:27;99386.00;;;27.30
12875;BMP180;6505;51.114;13.128;2023-07-13T05:00:02;99389.00;;;27.30
12875;BMP180;6505;51.114;13.128;2023-07-13T05:02:38;99390.00;;;27.30
12875;BMP180;6505;51.114;13.128;2023-07-13T05:05:12;99392.00;;;27.30
12875;BMP180;6505;51.114;13.128;2023-07-13T05:07:43;99387.00;;;27.30
12875;BMP180;6505;51.114;13.128;2023-07-13T05:10:19;99381.00;;;27.30
12875;BMP180;6505;51.114;13.128;2023-07-13T05:12:53;99383.00;;;27.30
12875;BMP180;6505;51.114;13.128;2023-07-13T05:15:26;99382.00;;;27.30
12875;BMP180;6505;51.114;13.128;2023-07-13T05:17:59;99387.00;;;27.30
12875;BMP180;6505;51.114;13.128;2023-07-13T05:20:36;99393.00;;;27.30
12875;BMP180;6505;51.114;13.128;2023-07-13T05:23:08;99390.00;;;27.30
12875;BMP180;6505;51.114;13.128;2023-07-13T05:25:43;99401.00;;;27.30
12875;BMP180;6505;51.114;13.128;2023-07-13T05:28:14;99403.00;;;27.30
12875;BMP180;6505;51.114;13.128;2023-07-13T05:30:48;99408.00;;;27.30
12875;BMP180;6505;51.114;13.128;2023-07-13T05:33:19;99418.00;;;27.30
12875;BMP180;6505;51.114;13.128;2023-07-13T05:35:51;99417.00;;;27.30
12875;BMP180;6505;51.114;13.128;2023-07-13T05:38:23;99414.00;;;27.30
12875;BMP180;6505;51.114;13.128;2023-07-13T05:40:58;99417.00;;;27.30
12875;BMP180;6505;51.114;13.128;2023-07-13T05:43:34;99407.00;;;27.40
12875;BMP180;6505;51.114;13.128;2023-07-13T05:46:07;99409.00;;;27.40
12875;BMP180;6505;51.114;13.128;2023-07-13T05:48:38;99411.00;;;27.40
12875;BMP180;6505;51.114;13.128;2023-07-13T05:51:10;99410.00;;;27.40
12875;BMP180;6505;51.114;13.128;2023-07-13T05:53:42;99416.00;;;27.40
12875;BMP180;6505;51.114;13.128;2023-07-13T05:56:15;99405.00;;;27.40
12875;BMP180;6505;51.114;13.128;2023-07-13T05:58:48;99401.00;;;27.50
12875;BMP180;6505;51.114;13.128;2023-07-13T06:01:18;99401.00;;;27.50
12875;BMP180;6505;51.114;13.128;2023-07-13T06:03:52;99408.00;;;27.50
12875;BMP180;6505;51.114;13.128;2023-07-13T06:06:27;99414.00;;;27.50
12875;BMP180;6505;51.114;13.128;2023-07-13T06:08:59;99419.00;;;27.60
12875;BMP180;6505;51.114;13.128;2023-07-13T06:11:36;99410.00;;;27.60
12875;BMP180;6505;51.114;13.128;2023-07-13T06:14:11;99410.00;;;27.60
12875;BMP180;6505;51.114;13.128;2023-07-13T06:16:44;99421.00;;;27.60
12875;BMP180;6505;51.114;13.128;2023-07-13T06:19:16;99425.00;;;27.70
12875;BMP180;6505;51.114;13.128;2023-07-13T06:21:47;99428.00;;;27.70
12875;BMP180;6505;51.114;13.128;2023-07-13T06:24:20;99424.00;;;27.70
12875;BMP180;6505;51.114;13.128;2023-07-13T06:26:53;99430.00;;;27.80
12875;BMP180;6505;51.114;13.128;2023-07-13T06:29:24;99432.00;;;27.80
12875;BMP180;6505;51.114;13.128;2023-07-13T06:31:56;99429.00;;;27.80
12875;BMP180;6505;51.114;13.128;2023-07-13T06:34:28;99428.00;;;27.90
12875;BMP180;6505;51.114;13.128;2023-07-13T06:37:00;99427.00;;;27.90
12875;BMP180;6505;51.114;13.128;2023-07-13T06:39:33;99419.00;;;28.00
12875;BMP180;6505;51.114;13.128;2023-07-13T06:42:07;99430.00;;;28.00
12875;BMP180;6505;51.114;13.128;2023-07-13T06:44:42;99429.00;;;28.00
12875;BMP180;6505;51.114;13.128;2023-07-13T06:47:14;99438.00;;;28.10
12875;BMP180;6505;51.114;13.128;2023-07-13T06:49:47;99437.00;;;28.10
12875;BMP180;6505;51.114;13.128;2023-07-13T06:52:19;99443.00;;;28.10
12875;BMP180;6505;51.114;13.128;2023-07-13T06:54:49;99434.00;;;28.20
12875;BMP180;6505;51.114;13.128;2023-07-13T06:57:23;99440.00;;;28.20
12875;BMP180;6505;51.114;13.128;2023-07-13T06:59:55;99445.00;;;28.20
12875;BMP180;6505;51.114;13.128;2023-07-13T07:02:27;99441.00;;;28.30
12875;BMP180;6505;51.114;13.128;2023-07-13T07:04:58;99449.00;;;28.30
12875;BMP180;6505;51.114;13.128;2023-07-13T07:07:30;99456.00;;;28.30
12875;BMP180;6505;51.114;13.128;2023-07-13T07:10:00;99450.00;;;28.30
12875;BMP180;6505;51.114;13.128;2023-07-13T07:12:36;99455.00;;;28.30
12875;BMP180;6505;51.114;13.128;2023-07-13T07:15:07;99452.00;;;28.40
12875;BMP180;6505;51.114;13.128;2023-07-13T07:17:39;99456.00;;;28.40
12875;BMP180;6505;51.114;13.128;2023-07-13T07:20:12;99457.00;;;28.40
12875;BMP180;6505;51.114;13.128;2023-07-13T07:22:44;99458.00;;;28.40
12875;BMP180;6505;51.114;13.128;2023-07-13T07:25:17;99462.00;;;28.40
12875;BMP180;6505;51.114;13.128;2023-07-13T07:27:49;99468.00;;;28.50
12875;BMP180;6505;51.114;13.128;2023-07-13T07:30:26;99461.00;;;28.50
12875;BMP180;6505;51.114;13.128;2023-07-13T07:33:14;99467.00;;;28.50
12875;BMP180;6505;51.114;13.128;2023-07-13T07:35:48;99464.00;;;28.50
12875;BMP180;6505;51.114;13.128;2023-07-13T07:38:25;99468.00;;;28.60
12875;BMP180;6505;51.114;13.128;2023-07-13T07:40:58;99468.00;;;28.60
12875;BMP180;6505;51.114;13.128;2023-07-13T07:43:35;99471.00;;;28.60
12875;BMP180;6505;51.114;13.128;2023-07-13T07:46:06;99471.00;;;28.70
12875;BMP180;6505;51.114;13.128;2023-07-13T07:48:39;99480.00;;;28.70
12875;BMP180;6505;51.114;13.128;2023-07-13T07:51:11;99472.00;;;28.70
12875;BMP180;6505;51.114;13.128;2023-07-13T07:53:42;99463.00;;;28.80
12875;BMP180;6505;51.114;13.128;2023-07-13T07:56:14;99468.00;;;28.80
12875;BMP180;6505;51.114;13.128;2023-07-13T07:58:51;99471.00;;;28.80
12875;BMP180;6505;51.114;13.128;2023-07-13T08:01:27;99476.00;;;28.90
12875;BMP180;6505;51.114;13.128;2023-07-13T08:04:00;99468.00;;;29.00
12875;BMP180;6505;51.114;13.128;2023-07-13T08:06:35;99465.00;;;29.00
12875;BMP180;6505;51.114;13.128;2023-07-13T08:09:14;99469.00;;;29.10
12875;BMP180;6505;51.114;13.128;2023-07-13T08:11:48;99463.00;;;29.10
12875;BMP180;6505;51.114;13.128;2023-07-13T08:14:35;99476.00;;;29.10
12875;BMP180;6505;51.114;13.128;2023-07-13T08:17:23;99469.00;;;29.20
12875;BMP180;6505;51.114;13.128;2023-07-13T08:19:57;99476.00;;;29.20
12875;BMP180;6505;51.114;13.128;2023-07-13T08:22:29;99481.00;;;29.30
12875;BMP180;6505;51.114;13.128;2023-07-13T08:25:02;99485.00;;;29.40
12875;BMP180;6505;51.114;13.128;2023-07-13T08:27:34;99468.00;;;29.40
12875;BMP180;6505;51.114;13.128;2023-07-13T08:30:09;99476.00;;;29.40
12875;BMP180;6505;51.114;13.128;2023-07-13T08:32:42;99478.00;;;29.50
12875;BMP180;6505;51.114;13.128;2023-07-13T08:35:14;99473.00;;;29.50
12875;BMP180;6505;51.114;13.128;2023-07-13T08:37:49;99473.00;;;29.60
12875;BMP180;6505;51.114;13.128;2023-07-13T08:40:27;99478.00;;;29.60
12875;BMP180;6505;51.114;13.128;2023-07-13T08:43:01;99475.00;;;29.70
12875;BMP180;6505;51.114;13.128;2023-07-13T08:45:43;99482.00;;;29.80
12875;BMP180;6505;51.114;13.128;2023-07-13T08:48:27;99473.00;;;29.80
12875;BMP180;6505;51.114;13.128;2023-07-13T08:51:12;99480.00;;;29.90
12875;BMP180;6505;51.114;13.128;2023-07-13T08:53:54;99475.00;;;30.00
12875;BMP180;6505;51.114;13.128;2023-07-13T08:56:29;99478.00;;;30.10
12875;BMP180;6505;51.114;13.128;2023-07-13T08:59:11;99485.00;;;30.20
12875;BMP180;6505;51.114;13.128;2023-07-13T09:05:00;99470.00;;;30.40
12875;BMP180;6505;51.114;13.128;2023-07-13T09:07:48;99487.00;;;30.50
12875;BMP180;6505;51.114;13.128;2023-07-13T09:10:26;99476.00;;;30.50
12875;BMP180;6505;51.114;13.128;2023-07-13T09:13:11;99479.00;;;30.60
12875;BMP180;6505;51.114;13.128;2023-07-13T09:15:46;99481.00;;;30.70
12875;BMP180;6505;51.114;13.128;2023-07-13T09:18:23;99480.00;;;30.80
12875;BMP180;6505;51.114;13.128;2023-07-13T09:20:59;99481.00;;;30.90
12875;BMP180;6505;51.114;13.128;2023-07-13T09:23:30;99480.00;;;31.00
12875;BMP180;6505;51.114;13.128;2023-07-13T09:26:06;99477.00;;;31.00
12875;BMP180;6505;51.114;13.128;2023-07-13T09:28:42;99477.00;;;31.00
12875;BMP180;6505;51.114;13.128;2023-07-13T09:31:16;99481.00;;;31.10
12875;BMP180;6505;51.114;13.128;2023-07-13T09:33:46;99478.00;;;31.20
12875;BMP180;6505;51.114;13.128;2023-07-13T09:36:21;99484.00;;;31.10
12875;BMP180;6505;51.114;13.128;2023-07-13T09:39:02;99494.00;;;31.20
12875;BMP180;6505;51.114;13.128;2023-07-13T09:41:44;99491.00;;;31.20
12875;BMP180;6505;51.114;13.128;2023-07-13T09:44:30;99500.00;;;31.20
12875;BMP180;6505;51.114;13.128;2023-07-13T09:47:03;99495.00;;;31.20
12875;BMP180;6505;51.114;13.128;2023-07-13T09:49:38;99500.00;;;31.30
12875;BMP180;6505;51.114;13.128;2023-07-13T09:52:15;99501.00;;;31.20
12875;BMP180;6505;51.114;13.128;2023-07-13T09:54:52;99500.00;;;31.20
12875;BMP180;6505;51.114;13.128;2023-07-13T09:57:29;99507.00;;;31.20
12875;BMP180;6505;51.114;13.128;2023-07-13T10:00:23;99507.00;;;31.20
12875;BMP180;6505;51.114;13.128;2023-07-13T10:03:03;99505.00;;;31.20
12875;BMP180;6505;51.114;13.128;2023-07-13T10:05:43;99497.00;;;31.20
12875;BMP180;6505;51.114;13.128;2023-07-13T10:08:23;99508.00;;;31.20
12875;BMP180;6505;51.114;13.128;2023-07-13T10:11:01;99511.00;;;31.20
12875;BMP180;6505;51.114;13.128;2023-07-13T10:13:37;99512.00;;;31.20
12875;BMP180;6505;51.114;13.128;2023-07-13T10:16:14;99514.00;;;31.20
12875;BMP180;6505;51.114;13.128;2023-07-13T10:18:53;99505.00;;;31.20
12875;BMP180;6505;51.114;13.128;2023-07-13T10:21:36;99519.00;;;31.20
12875;BMP180;6505;51.114;13.128;2023-07-13T10:24:19;99510.00;;;31.20
12875;BMP180;6505;51.114;13.128;2023-07-13T10:27:00;99512.00;;;31.20
12875;BMP180;6505;51.114;13.128;2023-07-13T10:29:39;99517.00;;;31.20
12875;BMP180;6505;51.114;13.128;2023-07-13T10:32:14;99513.00;;;31.20
12875;BMP180;6505;51.114;13.128;2023-07-13T10:34:48;99513.00;;;31.10
12875;BMP180;6505;51.114;13.128;2023-07-13T10:37:26;99517.00;;;31.10
12875;BMP180;6505;51.114;13.128;2023-07-13T10:40:02;99522.00;;;31.10
12875;BMP180;6505;51.114;13.128;2023-07-13T10:42:39;99526.00;;;31.10
12875;BMP180;6505;51.114;13.128;2023-07-13T10:45:17;99525.00;;;31.10
12875;BMP180;6505;51.114;13.128;2023-07-13T10:47:51;99525.00;;;31.10
12875;BMP180;6505;51.114;13.128;2023-07-13T10:50:28;99513.00;;;31.10
12875;BMP180;6505;51.114;13.128;2023-07-13T10:53:18;99508.00;;;31.00
12875;BMP180;6505;51.114;13.128;2023-07-13T10:56:02;99505.00;;;31.00
12875;BMP180;6505;51.114;13.128;2023-07-13T10:58:38;99493.00;;;31.00
12875;BMP180;6505;51.114;13.128;2023-07-13T11:01:16;99497.00;;;31.00
12875;BMP180;6505;51.114;13.128;2023-07-13T11:03:55;99506.00;;;31.00
12875;BMP180;6505;51.114;13.128;2023-07-13T11:06:37;99505.00;;;31.00
12875;BMP180;6505;51.114;13.128;2023-07-13T11:09:37;99506.00;;;30.90
12875;BMP180;6505;51.114;13.128;2023-07-13T11:12:27;99496.00;;;30.90
12875;BMP180;6505;51.114;13.128;2023-07-13T11:15:10;99490.00;;;30.90
12875;BMP180;6505;51.114;13.128;2023-07-13T11:17:51;99475.00;;;30.90
12875;BMP180;6505;51.114;13.128;2023-07-13T11:20:39;99502.00;;;30.90
12875;BMP180;6505;51.114;13.128;2023-07-13T11:23:30;99483.00;;;30.90
12875;BMP180;6505;51.114;13.128;2023-07-13T11:26:04;99495.00;;;30.90
12875;BMP180;6505;51.114;13.128;2023-07-13T11:28:54;99495.00;;;30.90
12875;BMP180;6505;51.114;13.128;2023-07-13T11:31:25;99494.00;;;30.90
12875;BMP180;6505;51.114;13.128;2023-07-13T11:34:00;99491.00;;;30.90
12875;BMP180;6505;51.114;13.128;2023-07-13T11:36:39;99488.00;;;30.90
12875;BMP180;6505;51.114;13.128;2023-07-13T11:39:20;99485.00;;;30.90
12875;BMP180;6505;51.114;13.128;2023-07-13T11:41:55;99483.00;;;30.90
12875;BMP180;6505;51.114;13.128;2023-07-13T11:44:32;99486.00;;;30.90
12875;BMP180;6505;51.114;13.128;2023-07-13T11:47:10;99489.00;;;30.90
12875;BMP180;6505;51.114;13.128;2023-07-13T11:49:44;99483.00;;;30.90
12875;BMP180;6505;51.114;13.128;2023-07-13T11:52:19;99489.00;;;30.90
12875;BMP180;6505;51.114;13.128;2023-07-13T11:54:52;99497.00;;;30.90
12875;BMP180;6505;51.114;13.128;2023-07-13T11:57:29;99488.00;;;30.90
12875;BMP180;6505;51.114;13.128;2023-07-13T12:00:09;99485.00;;;30.90
12875;BMP180;6505;51.114;13.128;2023-07-13T12:02:44;99481.00;;;30.90
12875;BMP180;6505;51.114;13.128;2023-07-13T12:05:18;99474.00;;;30.90
12875;BMP180;6505;51.114;13.128;2023-07-13T12:07:48;99481.00;;;30.90
12875;BMP180;6505;51.114;13.128;2023-07-13T12:10:23;99474.00;;;30.90
12875;BMP180;6505;51.114;13.128;2023-07-13T12:12:59;99485.00;;;30.90
12875;BMP180;6505;51.114;13.128;2023-07-13T12:15:37;99482.00;;;30.90
12875;BMP180;6505;51.114;13.128;2023-07-13T12:18:13;99479.00;;;30.90
12875;BMP180;6505;51.114;13.128;2023-07-13T12:20:42;99485.00;;;30.90
12875;BMP180;6505;51.114;13.128;2023-07-13T12:23:23;99485.00;;;30.80
12875;BMP180;6505;51.114;13.128;2023-07-13T12:25:53;99494.00;;;30.90
12875;BMP180;6505;51.114;13.128;2023-07-13T12:28:31;99493.00;;;30.90
12875;BMP180;6505;51.114;13.128;2023-07-13T12:31:02;99483.00;;;30.90
12875;BMP180;6505;51.114;13.128;2023-07-13T12:33:33;99492.00;;;30.90
12875;BMP180;6505;51.114;13.128;2023-07-13T12:36:03;99483.00;;;30.90
12875;BMP180;6505;51.114;13.128;2023-07-13T12:38:33;99488.00;;;30.90
12875;BMP180;6505;51.114;13.128;2023-07-13T12:41:02;99481.00;;;30.90
12875;BMP180;6505;51.114;13.128;2023-07-13T12:43:36;99481.00;;;30.90
12875;BMP180;6505;51.114;13.128;2023-07-13T12:46:18;99490.00;;;30.80
12875;BMP180;6505;51.114;13.128;2023-07-13T12:48:49;99473.00;;;30.90
12875;BMP180;6505;51.114;13.128;2023-07-13T12:51:36;99481.00;;;30.80
12875;BMP180;6505;51.114;13.128;2023-07-13T12:54:16;99477.00;;;30.80
12875;BMP180;6505;51.114;13.128;2023-07-13T12:56:49;99470.00;;;30.80
12875;BMP180;6505;51.114;13.128;2023-07-13T12:59:22;99464.00;;;30.80
12875;BMP180;6505;51.114;13.128;2023-07-13T13:01:54;99473.00;;;30.90
12875;BMP180;6505;51.114;13.128;2023-07-13T13:04:23;99471.00;;;30.80
12875;BMP180;6505;51.114;13.128;2023-07-13T13:07:02;99477.00;;;30.80
12875;BMP180;6505;51.114;13.128;2023-07-13T13:09:31;99483.00;;;30.80
12875;BMP180;6505;51.114;13.128;2023-07-13T13:12:00;99475.00;;;30.80
12875;BMP180;6505;51.114;13.128;2023-07-13T13:14:30;99472.00;;;30.80
12875;BMP180;6505;51.114;13.128;2023-07-13T13:16:58;99480.00;;;30.80
12875;BMP180;6505;51.114;13.128;2023-07-13T13:19:29;99478.00;;;30.80
12875;BMP180;6505;51.114;13.128;2023-07-13T13:21:57;99477.00;;;30.80
12875;BMP180;6505;51.114;13.128;2023-07-13T13:24:28;99483.00;;;30.80
12875;BMP180;6505;51.114;13.128;2023-07-13T13:26:56;99483.00;;;30.80
12875;BMP180;6505;51.114;13.128;2023-07-13T13:29:25;99477.00;;;30.80
12875;BMP180;6505;51.114;13.128;2023-07-13T13:31:55;99484.00;;;30.80
12875;BMP180;6505;51.114;13.128;2023-07-13T13:34:25;99482.00;;;30.80
12875;BMP180;6505;51.114;13.128;2023-07-13T13:36:54;99477.00;;;30.80
12875;BMP180;6505;51.114;13.128;2023-07-13T13:39:34;99482.00;;;30.80
12875;BMP180;6505;51.114;13.128;2023-07-13T13:42:05;99484.00;;;30.80
12875;BMP180;6505;51.114;13.128;2023-07-13T13:44:33;99483.00;;;30.80
12875;BMP180;6505;51.114;13.128;2023-07-13T13:47:03;99485.00;;;30.80
12875;BMP180;6505;51.114;13.128;2023-07-13T13:49:31;99486.00;;;30.80
12875;BMP180;6505;51.114;13.128;2023-07-13T13:52:00;99487.00;;;30.80
12875;BMP180;6505;51.114;13.128;2023-07-13T13:54:28;99490.00;;;30.80
12875;BMP180;6505;51.114;13.128;2023-07-13T13:56:56;99497.00;;;30.80
12875;BMP180;6505;51.114;13.128;2023-07-13T13:59:26;99493.00;;;30.80
12875;BMP180;6505;51.114;13.128;2023-07-13T14:01:54;99492.00;;;30.80
12875;BMP180;6505;51.114;13.128;2023-07-13T14:04:28;99489.00;;;30.80
12875;BMP180;6505;51.114;13.128;2023-07-13T14:06:56;99502.00;;;30.80
12875;BMP180;6505;51.114;13.128;2023-07-13T14:09:24;99492.00;;;30.80
12875;BMP180;6505;51.114;13.128;2023-07-13T14:11:52;99489.00;;;30.80
12875;BMP180;6505;51.114;13.128;2023-07-13T14:14:23;99483.00;;;30.80
12875;BMP180;6505;51.114;13.128;2023-07-13T14:16:52;99491.00;;;30.80
12875;BMP180;6505;51.114;13.128;2023-07-13T14:19:23;99497.00;;;30.80
12875;BMP180;6505;51.114;13.128;2023-07-13T14:21:53;99482.00;;;30.80
12875;BMP180;6505;51.114;13.128;2023-07-13T14:24:21;99497.00;;;30.80
12875;BMP180;6505;51.114;13.128;2023-07-13T14:26:49;99493.00;;;30.80
12875;BMP180;6505;51.114;13.128;2023-07-13T14:29:19;99473.00;;;30.80
12875;BMP180;6505;51.114;13.128;2023-07-13T14:31:50;99491.00;;;30.70
12875;BMP180;6505;51.114;13.128;2023-07-13T14:34:19;99479.00;;;30.80
12875;BMP180;6505;51.114;13.128;2023-07-13T14:36:49;99478.00;;;30.80
12875;BMP180;6505;51.114;13.128;2023-07-13T14:39:23;99480.00;;;30.70
12875;BMP180;6505;51.114;13.128;2023-07-13T14:41:54;99477.00;;;30.70
12875;BMP180;6505;51.114;13.128;2023-07-13T14:44:26;99478.00;;;30.70
12875;BMP180;6505;51.114;13.128;2023-07-13T14:46:58;99478.00;;;30.70
12875;BMP180;6505;51.114;13.128;2023-07-13T14:49:30;99475.00;;;30.70